CheckWX is a tool to help pilots better visualize weather data.  It is not intended as a substitute for an official pre-flight weather briefing.

15:58:11 UTC

KMKG TAF
Muskegon County Airport
Muskegon, Michigan, USA
KMKG 241414Z 2414/2512 20012G18KT 5SM BR OVC004 FM241700 20010KT 1 1/2SM BR OVC002 FM241900 20010KT P6SM VCTS BKN025CB FM242300 21012G21KT P6SM VCSH BKN040 FM250800 24012G21KT P6SM BKN025

Jun-24@
14:00 UTC

Jun-24 @ 14:00 UTC

Jun-24@
17:00 UTC

Jun-24 @ 17:00 UTC

KMKG 241414Z 2414/2512 20012G18KT 5SM BR OVC004
Wind
  • 200° at 12 KTS
  • {Gusting to 18 KTS
Conditions
Mist
Cloud Levels
  • Overcast at 400' AGL

Jun-24@
17:00 UTC

Jun-24 @ 17:00 UTC

Jun-24@
19:00 UTC

Jun-24 @ 19:00 UTC

FM241700 20010KT 1 1/2SM BR OVC002

From

From Standard forecast or significant change

Wind
  • 200° at 10 KTS
Conditions
Mist
Cloud Levels
  • Overcast at 200' AGL

Jun-24@
19:00 UTC

Jun-24 @ 19:00 UTC

Jun-24@
23:00 UTC

Jun-24 @ 23:00 UTC

FM241900 20010KT P6SM VCTS BKN025CB

From

From Standard forecast or significant change

Wind
  • 200° at 10 KTS
Conditions
Area Thunderstorm
Cloud Levels
  • Broken at 2,500' AGL

Jun-24@
23:00 UTC

Jun-24 @ 23:00 UTC

Jun-25@
08:00 UTC

Jun-25 @ 08:00 UTC

FM242300 21012G21KT P6SM VCSH BKN040

From

From Standard forecast or significant change

Wind
  • 210° at 12 KTS
  • {Gusting to 21 KTS
Cloud Levels
  • Broken at 4,000' AGL

Jun-25@
08:00 UTC

Jun-25 @ 08:00 UTC

Jun-25@
12:00 UTC

Jun-25 @ 12:00 UTC

FM250800 24012G21KT P6SM BKN025

From

From Standard forecast or significant change

Wind
  • 240° at 12 KTS
  • {Gusting to 21 KTS
Cloud Levels
  • Broken at 2,500' AGL